Time;durP1;ratioP1;P1;durP2;ratioP2;P2;SDS_P1;SDS_P2;PMS_P1;PMS_P2;Temp;Humidity;BMP_temperature;BMP_pressure;BME280_temperature;BME280_humidity;BME280_pressure;Samples;Min_cycle;Max_cycle;Signal;HPM_P1;HPM_P2
2021/10/13 00:01:51;;;;;;;3.77;2.93;;;7.10;99.90;;;;;;4960684;28;20871;-58
2021/10/13 00:04:17;;;;;;;4.10;2.90;;;7.10;99.90;;;;;;4958150;28;20520;-59
2021/10/13 00:06:43;;;;;;;2.90;2.70;;;7.10;99.90;;;;;;4964096;28;20520;-60
2021/10/13 00:09:09;;;;;;;2.87;2.60;;;7.10;99.90;;;;;;4954751;28;20198;-59
2021/10/13 00:11:38;;;;;;;3.77;3.47;;;7.10;99.90;;;;;;4953365;28;20206;-59
2021/10/13 00:14:04;;;;;;;3.30;2.83;;;7.10;99.90;;;;;;4981064;28;20533;-60
2021/10/13 00:16:31;;;;;;;5.97;3.13;;;7.10;99.90;;;;;;4969482;28;20508;-59
2021/10/13 00:18:57;;;;;;;5.10;2.90;;;7.10;99.90;;;;;;4967203;28;21174;-59
2021/10/13 00:21:22;;;;;;;3.50;3.00;;;7.10;99.90;;;;;;4966197;28;20469;-59
2021/10/13 00:23:48;;;;;;;6.63;3.10;;;7.10;99.90;;;;;;4969394;28;20237;-60
2021/10/13 00:26:14;;;;;;;4.60;3.33;;;7.10;99.90;;;;;;4964648;28;20261;-60
2021/10/13 00:28:40;;;;;;;3.20;2.90;;;7.10;99.90;;;;;;4968958;28;20175;-60
2021/10/13 00:31:07;;;;;;;3.70;3.37;;;7.10;99.90;;;;;;4972729;28;20636;-60
2021/10/13 00:33:32;;;;;;;5.53;3.13;;;7.10;99.90;;;;;;4967176;28;20698;-59
2021/10/13 00:35:58;;;;;;;3.70;2.97;;;7.10;99.90;;;;;;4965572;28;20425;-60
2021/10/13 00:38:23;;;;;;;4.10;3.33;;;7.10;99.90;;;;;;4966154;28;20270;-59
2021/10/13 00:40:49;;;;;;;5.13;3.67;;;7.10;99.90;;;;;;4968567;28;20201;-59
2021/10/13 00:43:15;;;;;;;5.00;4.07;;;7.10;99.90;;;;;;4967739;28;20256;-59
2021/10/13 00:45:40;;;;;;;5.53;3.97;;;7.10;99.90;;;;;;4967951;28;20233;-59
2021/10/13 00:48:06;;;;;;;5.00;4.20;;;7.10;99.90;;;;;;4966546;28;20185;-59
2021/10/13 00:50:32;;;;;;;6.93;4.43;;;7.20;99.90;;;;;;4969047;28;20213;-59
2021/10/13 00:52:57;;;;;;;5.43;4.87;;;7.20;99.90;;;;;;4968351;28;20261;-60
2021/10/13 00:55:23;;;;;;;5.03;4.30;;;7.20;99.90;;;;;;4968423;28;20229;-61
2021/10/13 00:57:51;;;;;;;5.50;4.00;;;7.20;99.90;;;;;;4968005;28;20174;-60
2021/10/13 01:00:19;;;;;;;5.37;4.30;;;7.20;99.90;;;;;;4965859;28;20464;-60
2021/10/13 01:03:13;;;;;;;7.53;5.23;;;7.20;99.90;;;;;;4965167;28;20464;-59
2021/10/13 01:05:56;;;;;;;5.70;4.50;;;7.10;99.90;;;;;;4966863;28;20876;-60
2021/10/13 01:08:48;;;;;;;5.70;4.20;;;7.10;99.90;;;;;;4965265;28;20428;-58
2021/10/13 01:11:20;;;;;;;10.27;4.57;;;7.00;99.90;;;;;;4962962;28;21009;-59
2021/10/13 01:14:05;;;;;;;7.77;4.40;;;7.00;99.90;;;;;;4970213;28;20412;-60
2021/10/13 01:16:53;;;;;;;5.40;4.37;;;7.00;99.90;;;;;;4963971;28;20432;-60
2021/10/13 01:19:46;;;;;;;5.00;4.43;;;7.00;99.90;;;;;;4965848;28;20464;-59
2021/10/13 01:22:15;;;;;;;5.60;4.30;;;6.90;99.90;;;;;;4966762;28;20497;-60
2021/10/13 01:25:28;;;;;;;5.43;4.33;;;6.90;99.90;;;;;;4969292;28;20500;-60
2021/10/13 01:28:00;;;;;;;5.17;4.00;;;6.90;99.90;;;;;;4944054;29;20779;-61
2021/10/13 01:30:32;;;;;;;5.17;4.67;;;6.80;99.90;;;;;;4947244;29;20438;-59
2021/10/13 01:33:08;;;;;;;10.43;4.13;;;6.80;99.90;;;;;;4960355;28;20439;-59
2021/10/13 01:35:40;;;;;;;6.30;4.37;;;6.70;99.90;;;;;;4967886;28;20404;-59
2021/10/13 01:38:17;;;;;;;6.47;5.00;;;6.60;99.90;;;;;;4963351;28;20430;-59
2021/10/13 01:40:46;;;;;;;5.63;4.23;;;6.60;99.90;;;;;;4967902;28;20451;-60
2021/10/13 01:43:12;;;;;;;8.50;4.80;;;6.50;99.90;;;;;;4967331;28;21046;-58
2021/10/13 01:45:44;;;;;;;7.37;5.03;;;6.50;99.90;;;;;;4964267;28;20433;-59
2021/10/13 01:48:12;;;;;;;6.60;5.20;;;6.50;99.90;;;;;;4967435;28;20427;-60
2021/10/13 01:50:39;;;;;;;5.87;5.00;;;6.40;99.90;;;;;;4969528;28;20433;-59
2021/10/13 01:53:06;;;;;;;6.40;4.90;;;6.40;99.90;;;;;;4967638;28;20409;-59
2021/10/13 01:55:33;;;;;;;7.90;5.73;;;6.40;99.90;;;;;;4963815;28;20438;-59
2021/10/13 01:58:01;;;;;;;6.53;5.10;;;6.40;99.90;;;;;;4969200;28;20937;-60
2021/10/13 02:00:28;;;;;;;5.07;4.57;;;6.30;99.90;;;;;;4967533;28;20984;-59
2021/10/13 02:02:55;;;;;;;6.10;4.87;;;6.30;99.90;;;;;;4967618;28;20487;-61
2021/10/13 02:05:22;;;;;;;5.30;4.73;;;6.20;99.90;;;;;;4967248;28;20461;-60
2021/10/13 02:07:49;;;;;;;11.17;5.00;;;6.20;99.90;;;;;;4968713;28;20484;-60
2021/10/13 02:10:18;;;;;;;7.20;4.77;;;6.20;99.90;;;;;;4966610;28;20413;-60
2021/10/13 02:12:46;;;;;;;5.90;4.43;;;6.10;99.90;;;;;;4958004;28;20426;-60
2021/10/13 02:15:14;;;;;;;8.50;5.30;;;6.10;99.90;;;;;;4957885;28;20436;-60
2021/10/13 02:17:45;;;;;;;8.57;5.80;;;6.00;99.90;;;;;;4960026;28;20441;-60
2021/10/13 02:20:11;;;;;;;8.77;5.90;;;6.00;99.90;;;;;;4962955;28;20520;-59
2021/10/13 02:22:45;;;;;;;11.43;5.77;;;6.00;99.90;;;;;;4961659;28;20485;-60
2021/10/13 02:25:11;;;;;;;9.30;5.67;;;6.00;99.90;;;;;;4974078;28;20430;-60
2021/10/13 02:27:54;;;;;;;8.87;5.70;;;5.90;99.90;;;;;;4958831;28;20942;-60
2021/10/13 02:30:20;;;;;;;7.57;5.50;;;5.90;99.90;;;;;;4959566;28;20198;-60
2021/10/13 02:32:45;;;;;;;7.47;5.53;;;5.90;99.90;;;;;;4958446;28;20884;-60
2021/10/13 02:35:11;;;;;;;7.60;5.40;;;5.80;99.90;;;;;;4964632;28;20530;-59
2021/10/13 02:37:37;;;;;;;8.90;5.43;;;5.80;99.90;;;;;;4963355;28;20213;-60
2021/10/13 02:40:07;;;;;;;8.73;5.70;;;5.80;99.90;;;;;;4963526;28;20590;-58
2021/10/13 02:42:34;;;;;;;8.63;5.80;;;5.80;99.90;;;;;;4960916;28;20203;-59
2021/10/13 02:45:00;;;;;;;9.07;5.93;;;5.90;99.90;;;;;;4969475;28;20460;-59
2021/10/13 02:47:41;;;;;;;7.77;5.47;;;5.80;99.90;;;;;;4977762;28;20600;-59
2021/10/13 02:50:37;;;;;;;8.57;5.13;;;5.80;99.90;;;;;;4962851;28;20425;-59
2021/10/13 02:53:15;;;;;;;7.07;4.77;;;5.80;99.90;;;;;;4966864;28;20711;-59
2021/10/13 02:55:48;;;;;;;11.97;5.90;;;5.80;99.90;;;;;;4959848;28;20434;-60
2021/10/13 02:58:24;;;;;;;6.20;5.40;;;5.80;99.90;;;;;;4979239;28;20432;-60
2021/10/13 03:00:51;;;;;;;5.30;4.70;;;5.80;99.90;;;;;;4959986;28;20472;-60
2021/10/13 03:03:26;;;;;;;5.90;4.80;;;5.80;99.90;;;;;;4961336;28;20591;-59
2021/10/13 03:05:55;;;;;;;10.43;5.07;;;5.80;99.90;;;;;;4965698;28;20430;-59
2021/10/13 03:08:22;;;;;;;9.50;5.20;;;5.80;99.90;;;;;;4963792;28;20418;-59
2021/10/13 03:10:50;;;;;;;9.00;6.70;;;5.80;99.90;;;;;;4964716;28;20442;-59
2021/10/13 03:13:19;;;;;;;9.93;6.53;;;5.80;99.90;;;;;;4963335;28;20468;-59
2021/10/13 03:15:45;;;;;;;6.57;5.70;;;5.80;99.90;;;;;;4961036;28;20446;-59
2021/10/13 03:18:16;;;;;;;8.33;5.97;;;5.80;99.90;;;;;;4964276;28;20449;-59
2021/10/13 03:20:42;;;;;;;9.53;4.70;;;5.80;99.90;;;;;;4962197;28;20449;-60
2021/10/13 03:23:08;;;;;;;6.47;4.90;;;5.70;99.90;;;;;;4966625;28;20528;-59
2021/10/13 03:25:34;;;;;;;6.80;5.40;;;5.70;99.90;;;;;;4961264;28;20433;-59
2021/10/13 03:28:02;;;;;;;10.87;5.47;;;5.60;99.90;;;;;;4960194;28;20418;-59
2021/10/13 03:30:29;;;;;;;6.87;5.20;;;5.60;99.90;;;;;;4959766;28;20326;-59
2021/10/13 03:32:55;;;;;;;11.03;5.60;;;5.60;99.90;;;;;;4961033;28;20429;-60
2021/10/13 03:35:26;;;;;;;6.20;5.13;;;5.50;99.90;;;;;;4963149;28;20781;-60
2021/10/13 03:37:53;;;;;;;7.67;5.23;;;5.50;99.90;;;;;;4962427;28;20264;-60
2021/10/13 03:40:25;;;;;;;7.27;5.53;;;5.50;99.90;;;;;;4959691;28;20818;-58
2021/10/13 03:42:51;;;;;;;10.07;5.87;;;5.40;99.90;;;;;;4958971;28;20457;-59
2021/10/13 03:45:19;;;;;;;7.77;5.00;;;5.40;99.90;;;;;;4960795;28;20438;-59
2021/10/13 03:47:46;;;;;;;9.10;5.53;;;5.40;99.90;;;;;;4959292;28;20528;-59
2021/10/13 03:50:14;;;;;;;10.97;6.97;;;5.40;99.90;;;;;;4959220;28;20553;-59
2021/10/13 03:52:40;;;;;;;9.83;5.90;;;5.40;99.90;;;;;;4959277;28;20854;-59
2021/10/13 03:55:08;;;;;;;7.87;6.17;;;5.40;99.90;;;;;;4954623;28;20437;-59
2021/10/13 03:57:33;;;;;;;10.03;6.20;;;5.40;99.90;;;;;;4954293;28;20448;-59
2021/10/13 03:59:59;;;;;;;7.17;5.47;;;5.40;99.90;;;;;;4958976;28;20430;-58
2021/10/13 04:02:25;;;;;;;6.83;5.20;;;5.30;99.90;;;;;;4960694;28;20698;-59
2021/10/13 04:04:50;;;;;;;7.83;5.97;;;5.40;99.90;;;;;;4959208;28;20182;-59
2021/10/13 04:07:16;;;;;;;7.67;5.80;;;5.30;99.90;;;;;;4958143;28;20171;-58
2021/10/13 04:09:42;;;;;;;8.77;6.33;;;5.30;99.90;;;;;;4959339;28;20170;-58
2021/10/13 04:12:07;;;;;;;8.37;5.90;;;5.20;99.90;;;;;;4966371;28;20554;-57
2021/10/13 04:14:33;;;;;;;9.50;6.03;;;5.20;99.90;;;;;;4954754;28;20174;-57
2021/10/13 04:16:59;;;;;;;9.20;6.33;;;5.10;99.90;;;;;;4962094;28;20194;-59
2021/10/13 04:19:24;;;;;;;8.53;6.20;;;5.10;99.90;;;;;;4956049;28;20233;-57
2021/10/13 04:21:50;;;;;;;9.50;7.00;;;5.10;99.90;;;;;;4953969;28;20592;-59
2021/10/13 04:24:16;;;;;;;9.10;6.60;;;5.10;99.90;;;;;;4954529;28;20191;-60
2021/10/13 04:26:42;;;;;;;8.70;6.43;;;5.10;99.90;;;;;;4954339;28;20197;-60
2021/10/13 04:29:08;;;;;;;8.43;6.40;;;5.10;99.90;;;;;;4955452;28;20426;-61
2021/10/13 04:31:33;;;;;;;11.13;6.80;;;5.10;99.90;;;;;;4956421;28;20624;-59
2021/10/13 04:33:59;;;;;;;9.73;6.80;;;5.10;99.90;;;;;;4958686;28;20190;-55
2021/10/13 04:36:25;;;;;;;10.00;6.50;;;5.10;99.90;;;;;;4950161;28;20221;-56
2021/10/13 04:38:50;;;;;;;9.27;6.63;;;5.10;99.90;;;;;;4953083;28;20186;-58
2021/10/13 04:41:16;;;;;;;17.40;7.60;;;5.00;99.90;;;;;;4954876;28;20257;-57
2021/10/13 04:43:42;;;;;;;17.30;10.50;;;5.00;99.90;;;;;;4957633;28;20373;-56
2021/10/13 04:46:07;;;;;;;12.17;9.40;;;5.00;99.90;;;;;;4960658;28;20181;-57
2021/10/13 04:48:33;;;;;;;19.83;9.87;;;5.00;99.90;;;;;;4957907;28;20177;-58
2021/10/13 04:50:59;;;;;;;18.93;11.23;;;5.00;99.90;;;;;;4954224;28;20206;-60
2021/10/13 04:53:25;;;;;;;17.10;11.30;;;5.00;99.90;;;;;;4976611;28;20178;-60
2021/10/13 04:55:50;;;;;;;16.00;8.93;;;4.90;99.90;;;;;;4960782;28;20766;-59
2021/10/13 04:58:16;;;;;;;11.90;9.00;;;4.90;99.90;;;;;;4960096;28;20417;-59
2021/10/13 05:00:42;;;;;;;16.40;10.73;;;4.90;99.90;;;;;;4961493;28;20269;-60
2021/10/13 05:03:07;;;;;;;17.90;10.33;;;4.90;99.90;;;;;;4962011;28;20289;-60
2021/10/13 05:05:35;;;;;;;16.13;10.40;;;5.00;99.90;;;;;;4958319;28;20427;-59
2021/10/13 05:08:01;;;;;;;14.40;9.93;;;5.00;99.90;;;;;;4973253;28;20629;-60
2021/10/13 05:10:26;;;;;;;16.83;9.00;;;5.00;99.90;;;;;;4961087;28;20470;-59
2021/10/13 05:12:52;;;;;;;13.87;9.37;;;5.00;99.90;;;;;;4961081;28;20566;-60
2021/10/13 05:15:18;;;;;;;13.50;9.00;;;5.00;99.90;;;;;;4961786;28;20610;-59
2021/10/13 05:17:43;;;;;;;11.27;8.10;;;5.10;99.90;;;;;;4961761;28;20656;-60
2021/10/13 05:20:09;;;;;;;14.00;8.20;;;5.10;99.90;;;;;;4974939;28;20188;-59
2021/10/13 05:22:35;;;;;;;38.37;21.93;;;5.10;99.90;;;;;;4959670;28;20341;-60
2021/10/13 05:25:01;;;;;;;40.20;20.03;;;5.10;99.90;;;;;;4956866;28;20441;-59
2021/10/13 05:27:26;;;;;;;21.60;13.60;;;5.20;99.90;;;;;;4959242;28;20178;-59
2021/10/13 05:29:52;;;;;;;12.47;7.93;;;5.20;99.90;;;;;;4961167;28;20248;-59
2021/10/13 05:32:17;;;;;;;10.30;7.87;;;5.30;99.90;;;;;;4974781;28;20373;-60
2021/10/13 05:34:43;;;;;;;12.93;6.83;;;5.30;99.90;;;;;;4959614;28;20253;-59
2021/10/13 05:37:09;;;;;;;7.73;5.17;;;5.30;99.90;;;;;;4957490;28;20214;-59
2021/10/13 05:39:34;;;;;;;11.07;5.73;;;5.30;99.90;;;;;;4955453;28;20182;-61
2021/10/13 05:42:00;;;;;;;7.83;5.50;;;5.30;99.90;;;;;;4974828;28;20722;-58
2021/10/13 05:44:26;;;;;;;7.77;5.10;;;5.30;99.90;;;;;;4960346;28;20177;-60
2021/10/13 05:46:51;;;;;;;8.77;5.03;;;5.30;99.90;;;;;;4959423;28;20276;-59
2021/10/13 05:49:17;;;;;;;5.40;4.27;;;5.30;99.90;;;;;;4960665;28;20170;-58
2021/10/13 05:51:43;;;;;;;4.73;4.20;;;5.30;99.90;;;;;;4961818;28;20770;-59
2021/10/13 05:54:08;;;;;;;6.10;4.33;;;5.30;99.90;;;;;;5000299;23;20245;-53
2021/10/13 05:56:34;;;;;;;7.00;4.10;;;5.40;99.90;;;;;;4962710;28;20225;-55
2021/10/13 05:59:00;;;;;;;7.30;5.57;;;5.40;99.90;;;;;;4962314;28;20177;-55
2021/10/13 06:01:25;;;;;;;7.97;5.87;;;5.40;99.90;;;;;;4961866;28;20202;-57
2021/10/13 06:03:51;;;;;;;7.40;5.77;;;5.40;99.90;;;;;;4959329;28;20178;-56
2021/10/13 06:06:17;;;;;;;9.83;6.13;;;5.30;99.90;;;;;;4939247;28;20203;-54
2021/10/13 06:08:43;;;;;;;8.43;5.70;;;5.30;99.90;;;;;;4949312;28;20437;-55
2021/10/13 06:11:09;;;;;;;7.33;5.20;;;5.30;99.90;;;;;;4946444;28;20175;-55
2021/10/13 06:13:35;;;;;;;9.83;6.50;;;5.20;99.90;;;;;;4948770;28;20422;-56
2021/10/13 06:16:00;;;;;;;9.87;6.80;;;5.10;99.90;;;;;;4948337;28;20228;-56
2021/10/13 06:18:26;;;;;;;9.80;5.43;;;5.10;99.90;;;;;;4949882;28;20167;-56
2021/10/13 06:20:52;;;;;;;6.17;4.50;;;5.10;99.90;;;;;;4947009;28;20191;-55
2021/10/13 06:23:17;;;;;;;6.70;4.43;;;5.00;99.90;;;;;;4945328;28;20467;-54
2021/10/13 06:25:43;;;;;;;6.10;4.00;;;5.00;99.90;;;;;;4950661;28;20209;-56
2021/10/13 06:28:09;;;;;;;5.10;3.70;;;5.00;99.90;;;;;;4950273;28;20171;-55
2021/10/13 06:30:37;;;;;;;6.90;4.37;;;5.00;99.90;;;;;;4948432;28;20202;-57
2021/10/13 06:33:04;;;;;;;7.97;4.20;;;5.00;99.90;;;;;;4958305;28;20274;-56
2021/10/13 06:35:30;;;;;;;6.40;4.30;;;4.90;99.90;;;;;;4948174;28;20541;-55
2021/10/13 06:37:55;;;;;;;5.53;4.37;;;5.00;99.90;;;;;;4948467;28;20550;-56
2021/10/13 06:40:21;;;;;;;7.43;4.17;;;5.00;99.90;;;;;;4947831;28;20199;-57
2021/10/13 06:42:47;;;;;;;8.80;4.10;;;5.00;99.90;;;;;;4946820;28;20198;-55
2021/10/13 06:45:13;;;;;;;9.30;4.03;;;5.00;99.90;;;;;;4951349;28;20202;-55
2021/10/13 06:47:39;;;;;;;8.00;4.50;;;5.10;99.90;;;;;;4944470;28;20178;-56
2021/10/13 06:50:06;;;;;;;6.63;4.23;;;5.10;99.90;;;;;;4949884;28;20925;-54
2021/10/13 06:52:32;;;;;;;4.90;3.60;;;5.20;99.90;;;;;;4946635;28;20264;-56
2021/10/13 06:54:57;;;;;;;7.63;4.50;;;5.30;99.90;;;;;;4951595;28;20502;-55
2021/10/13 06:57:24;;;;;;;10.20;4.63;;;5.30;99.90;;;;;;4951662;29;20182;-55
2021/10/13 06:59:49;;;;;;;8.03;4.73;;;5.40;99.90;;;;;;4950424;28;20761;-55
2021/10/13 07:02:15;;;;;;;5.17;4.40;;;5.50;99.90;;;;;;4949283;29;20560;-55
2021/10/13 07:04:41;;;;;;;12.03;5.27;;;5.60;99.90;;;;;;4949798;29;20245;-54
2021/10/13 07:07:07;;;;;;;5.20;4.30;;;5.60;99.90;;;;;;4940782;28;20262;-56
2021/10/13 07:09:33;;;;;;;6.33;4.70;;;5.70;99.90;;;;;;4947008;29;20183;-57
2021/10/13 07:11:58;;;;;;;5.40;4.20;;;5.80;99.90;;;;;;4945373;29;20525;-57
2021/10/13 07:14:24;;;;;;;6.13;4.30;;;5.90;99.90;;;;;;4938459;28;20539;-55
2021/10/13 07:16:50;;;;;;;9.63;4.73;;;5.90;99.90;;;;;;4950496;29;20291;-55
2021/10/13 07:19:15;;;;;;;5.93;4.60;;;6.00;99.90;;;;;;4950270;28;20194;-56
2021/10/13 07:21:41;;;;;;;5.73;4.57;;;6.00;99.90;;;;;;4961364;28;20566;-56
2021/10/13 07:24:06;;;;;;;10.67;4.93;;;6.10;99.90;;;;;;4948238;28;20558;-55
2021/10/13 07:26:34;;;;;;;8.87;4.57;;;6.10;99.90;;;;;;4940920;29;20176;-55
2021/10/13 07:29:00;;;;;;;7.60;5.40;;;6.20;99.90;;;;;;4947577;28;20253;-56
2021/10/13 07:31:27;;;;;;;9.23;5.23;;;6.30;99.90;;;;;;4949684;29;20438;-56
2021/10/13 07:33:53;;;;;;;8.00;5.20;;;6.40;99.90;;;;;;4948501;29;20182;-56
2021/10/13 07:36:19;;;;;;;7.10;5.50;;;6.50;99.90;;;;;;4944351;28;20468;-55
2021/10/13 07:38:46;;;;;;;8.50;5.53;;;6.60;99.90;;;;;;4947827;28;20433;-55
2021/10/13 07:41:14;;;;;;;9.93;6.00;;;6.70;99.90;;;;;;4946771;28;20171;-55
2021/10/13 07:43:40;;;;;;;10.30;4.97;;;6.80;99.90;;;;;;4947655;28;20513;-57
2021/10/13 07:46:05;;;;;;;7.43;4.73;;;6.90;99.90;;;;;;4947583;28;20984;-56
2021/10/13 07:48:31;;;;;;;6.67;4.27;;;7.10;99.90;;;;;;4945363;29;20171;-56
2021/10/13 07:50:57;;;;;;;7.17;4.47;;;7.20;99.90;;;;;;4943027;28;20182;-55
2021/10/13 07:53:23;;;;;;;5.90;4.50;;;7.40;99.90;;;;;;4943956;28;20181;-55
2021/10/13 07:55:50;;;;;;;6.30;4.03;;;7.50;99.90;;;;;;4949782;28;20214;-55
2021/10/13 07:58:15;;;;;;;4.97;3.80;;;7.60;99.90;;;;;;4947728;28;20437;-55
2021/10/13 08:00:41;;;;;;;6.10;4.20;;;7.70;99.90;;;;;;4949879;29;20430;-53
2021/10/13 08:03:06;;;;;;;8.53;4.23;;;7.80;99.90;;;;;;4945472;29;20414;-57
2021/10/13 08:05:32;;;;;;;6.73;4.77;;;7.90;99.90;;;;;;4949167;28;20202;-56
2021/10/13 08:07:58;;;;;;;8.07;4.50;;;8.00;99.90;;;;;;4947143;28;20562;-55
2021/10/13 08:10:24;;;;;;;7.30;4.70;;;8.00;99.90;;;;;;4949491;29;20922;-55
2021/10/13 08:12:50;;;;;;;5.90;4.30;;;8.10;99.90;;;;;;4949691;29;20460;-56
2021/10/13 08:15:16;;;;;;;6.30;4.10;;;8.20;99.90;;;;;;4948968;28;20204;-55
2021/10/13 08:17:42;;;;;;;4.77;4.00;;;8.20;99.90;;;;;;4946799;28;20430;-55
2021/10/13 08:20:10;;;;;;;4.73;3.77;;;8.10;99.90;;;;;;4948488;28;20516;-55
2021/10/13 08:22:39;;;;;;;5.60;4.20;;;8.10;99.90;;;;;;4949239;29;20450;-54
2021/10/13 08:25:06;;;;;;;4.83;4.03;;;8.00;99.90;;;;;;4942868;28;20466;-57
2021/10/13 08:27:31;;;;;;;12.63;4.30;;;7.80;99.90;;;;;;4946147;28;21035;-56
2021/10/13 08:29:57;;;;;;;6.63;4.70;;;7.70;99.90;;;;;;4946165;29;20430;-56
2021/10/13 08:32:23;;;;;;;7.07;4.20;;;7.60;99.90;;;;;;4948422;28;20186;-55
2021/10/13 08:34:49;;;;;;;6.37;4.13;;;7.50;99.90;;;;;;4949459;29;20191;-55
2021/10/13 08:37:14;;;;;;;5.67;4.60;;;7.40;99.90;;;;;;4947665;29;20179;-56
2021/10/13 08:39:40;;;;;;;4.83;3.90;;;7.30;99.90;;;;;;4938518;28;20191;-58
2021/10/13 08:42:06;;;;;;;6.90;4.40;;;7.30;99.90;;;;;;4940367;29;20293;-56
2021/10/13 08:44:33;;;;;;;4.27;3.33;;;7.20;99.90;;;;;;4937076;28;20209;-55
2021/10/13 08:46:59;;;;;;;6.20;4.70;;;7.20;99.90;;;;;;4944846;29;20178;-57
2021/10/13 08:49:25;;;;;;;4.97;4.10;;;7.20;99.90;;;;;;4945894;29;20426;-55
2021/10/13 08:51:50;;;;;;;4.70;3.77;;;7.20;99.90;;;;;;4945615;29;20426;-54
2021/10/13 08:54:19;;;;;;;5.00;3.90;;;7.20;99.90;;;;;;4944780;28;20178;-58
2021/10/13 08:56:46;;;;;;;8.60;4.50;;;7.30;99.90;;;;;;4940466;28;20261;-56
2021/10/13 08:59:43;;;;;;;5.07;3.97;;;7.30;99.90;;;;;;4946107;28;20836;-56
2021/10/13 09:02:10;;;;;;;8.17;4.00;;;7.30;99.90;;;;;;4941567;29;20462;-57
2021/10/13 09:04:37;;;;;;;4.93;3.40;;;7.40;99.90;;;;;;4943697;28;20899;-56
2021/10/13 09:07:04;;;;;;;6.17;3.60;;;7.50;99.90;;;;;;4944002;28;20565;-56
2021/10/13 09:09:30;;;;;;;6.50;3.67;;;7.60;99.90;;;;;;4938733;28;20843;-56
2021/10/13 09:11:56;;;;;;;5.23;3.70;;;7.80;99.90;;;;;;4946098;28;20426;-55
2021/10/13 09:14:28;;;;;;;5.70;3.10;;;7.80;99.90;;;;;;4944821;28;20761;-56
2021/10/13 09:17:08;;;;;;;4.37;3.50;;;7.80;99.90;;;;;;4941735;28;20218;-57
2021/10/13 09:19:36;;;;;;;6.40;3.07;;;7.90;99.90;;;;;;4945558;28;20894;-57
2021/10/13 09:22:04;;;;;;;3.60;2.87;;;7.90;99.90;;;;;;4942611;28;21013;-58
2021/10/13 09:24:31;;;;;;;3.10;2.80;;;8.00;99.90;;;;;;4943720;29;20433;-55
2021/10/13 09:27:15;;;;;;;5.50;3.37;;;8.00;99.90;;;;;;4944943;28;20774;-55
2021/10/13 09:29:42;;;;;;;4.07;2.40;;;8.10;99.90;;;;;;4946329;29;20422;-56
2021/10/13 09:32:08;;;;;;;3.60;2.70;;;8.20;99.90;;;;;;4945822;28;20433;-56
2021/10/13 09:34:33;;;;;;;8.83;2.80;;;8.20;99.90;;;;;;4945242;29;20446;-55
2021/10/13 09:36:59;;;;;;;9.87;2.80;;;8.20;99.90;;;;;;4945277;28;20178;-57
2021/10/13 09:39:28;;;;;;;5.93;2.40;;;8.20;99.40;;;;;;4945924;28;21070;-56
2021/10/13 09:42:08;;;;;;;4.90;2.53;;;8.20;99.00;;;;;;4944550;28;20469;-61
2021/10/13 09:44:58;;;;;;;2.73;2.30;;;8.30;98.90;;;;;;4948186;29;21179;-56
2021/10/13 09:47:35;;;;;;;4.40;2.87;;;8.50;98.10;;;;;;4963728;28;20810;-56
2021/10/13 09:50:06;;;;;;;3.53;2.87;;;8.50;97.40;;;;;;4949322;28;20492;-57
2021/10/13 09:52:31;;;;;;;4.10;2.63;;;8.60;97.00;;;;;;4945720;29;20422;-56
2021/10/13 09:55:01;;;;;;;4.40;2.40;;;8.70;97.40;;;;;;4948565;28;20477;-57
2021/10/13 09:57:32;;;;;;;2.30;2.10;;;8.70;97.60;;;;;;4946203;29;20669;-57
2021/10/13 10:00:00;;;;;;;5.60;2.43;;;8.70;97.50;;;;;;4949806;28;20437;-58
2021/10/13 10:02:30;;;;;;;5.50;1.90;;;8.70;97.10;;;;;;4942841;29;20453;-55
2021/10/13 10:05:01;;;;;;;2.47;1.70;;;8.70;97.50;;;;;;4946017;28;20508;-55
2021/10/13 10:07:27;;;;;;;4.03;2.03;;;8.80;96.60;;;;;;4944521;29;20434;-56
2021/10/13 10:10:06;;;;;;;2.33;2.00;;;9.10;95.30;;;;;;4944851;28;20819;-55
2021/10/13 10:12:54;;;;;;;1.97;1.80;;;9.30;94.30;;;;;;4943716;28;20851;-54
2021/10/13 10:15:38;;;;;;;1.90;1.70;;;9.60;92.20;;;;;;4939588;28;20946;-57
2021/10/13 10:18:26;;;;;;;2.77;1.90;;;9.80;85.40;;;;;;4945662;29;20423;-56
2021/10/13 10:20:53;;;;;;;2.40;1.97;;;9.70;85.80;;;;;;4940847;29;21044;-55
2021/10/13 10:23:35;;;;;;;2.40;2.03;;;9.70;90.20;;;;;;4946906;28;20536;-55
2021/10/13 10:26:29;;;;;;;7.50;2.00;;;9.60;91.70;;;;;;4939376;29;20891;-57
2021/10/13 10:28:57;;;;;;;4.40;2.27;;;9.50;93.60;;;;;;4946461;28;20520;-55
2021/10/13 10:31:28;;;;;;;4.90;2.70;;;9.50;94.00;;;;;;4949857;28;20730;-55
2021/10/13 10:34:03;;;;;;;4.07;2.13;;;9.30;94.20;;;;;;4947269;28;20497;-56
2021/10/13 10:36:54;;;;;;;3.57;2.37;;;9.30;93.30;;;;;;4946948;29;20425;-55
2021/10/13 10:39:40;;;;;;;3.17;1.93;;;9.20;94.20;;;;;;4944467;28;20418;-55
2021/10/13 10:42:06;;;;;;;2.53;2.13;;;9.20;93.80;;;;;;4944400;29;20465;-56
2021/10/13 10:44:39;;;;;;;3.47;2.43;;;9.10;94.20;;;;;;4948607;29;20434;-56
2021/10/13 10:47:07;;;;;;;1.93;1.80;;;9.20;95.10;;;;;;4948780;29;20178;-55
2021/10/13 10:49:50;;;;;;;3.20;2.27;;;9.20;94.50;;;;;;4947576;29;20775;-55
2021/10/13 10:52:20;;;;;;;5.97;2.40;;;9.20;94.10;;;;;;4947596;29;20847;-55
2021/10/13 10:54:53;;;;;;;3.53;1.93;;;9.20;94.80;;;;;;4960208;28;20544;-56
2021/10/13 10:57:30;;;;;;;3.30;2.10;;;9.30;95.20;;;;;;4947209;28;20481;-56
2021/10/13 10:59:57;;;;;;;4.07;1.60;;;9.40;94.00;;;;;;4941380;28;20438;-57
2021/10/13 11:02:23;;;;;;;4.60;1.90;;;9.40;94.50;;;;;;4942348;28;20501;-56
2021/10/13 11:05:05;;;;;;;4.60;2.10;;;9.50;91.10;;;;;;4938670;28;20866;-55
2021/10/13 11:07:31;;;;;;;4.07;2.37;;;9.60;91.30;;;;;;4945398;29;20430;-56
2021/10/13 11:10:03;;;;;;;4.93;2.03;;;9.60;90.30;;;;;;4945817;28;20426;-55
2021/10/13 11:12:55;;;;;;;3.03;2.07;;;9.90;90.60;;;;;;4941301;28;20437;-56
2021/10/13 11:15:22;;;;;;;2.50;2.03;;;10.00;80.90;;;;;;4937746;29;20462;-56
2021/10/13 11:17:48;;;;;;;3.03;1.50;;;10.10;79.20;;;;;;4945892;29;20516;-54
2021/10/13 11:20:18;;;;;;;3.03;2.30;;;10.10;84.10;;;;;;4938884;28;20732;-57
2021/10/13 11:22:44;;;;;;;8.63;2.03;;;10.00;84.50;;;;;;4942706;29;20457;-55
2021/10/13 11:25:15;;;;;;;1.80;1.60;;;10.00;80.90;;;;;;4944267;28;20880;-56
2021/10/13 11:27:42;;;;;;;5.57;2.03;;;9.90;85.90;;;;;;4947850;28;20819;-55
2021/10/13 11:30:20;;;;;;;2.20;1.77;;;9.90;82.80;;;;;;4945766;29;20441;-56
2021/10/13 11:32:46;;;;;;;1.70;1.57;;;9.80;82.10;;;;;;4935565;29;20508;-56
2021/10/13 11:35:13;;;;;;;1.70;1.60;;;9.70;73.50;;;;;;4941620;29;20462;-57
2021/10/13 11:37:39;;;;;;;5.47;2.33;;;9.50;80.40;;;;;;4952415;28;20478;-57
2021/10/13 11:40:13;;;;;;;4.43;2.00;;;9.50;82.30;;;;;;4942251;29;20426;-57
2021/10/13 11:42:38;;;;;;;1.50;1.40;;;9.40;83.50;;;;;;4945597;29;20465;-55
2021/10/13 11:45:05;;;;;;;5.23;1.50;;;9.30;86.70;;;;;;4945708;29;20853;-56
2021/10/13 11:47:33;;;;;;;1.53;1.43;;;9.30;82.00;;;;;;4944425;28;20277;-55
2021/10/13 11:50:06;;;;;;;3.33;1.57;;;9.30;80.70;;;;;;4944631;29;20422;-54
2021/10/13 11:52:32;;;;;;;2.37;1.60;;;9.30;83.20;;;;;;4939863;28;20429;-57
2021/10/13 11:54:59;;;;;;;2.30;1.57;;;9.40;86.20;;;;;;4961483;23;20483;-61
2021/10/13 11:57:25;;;;;;;3.80;2.00;;;9.30;82.80;;;;;;4965784;28;20926;-61
2021/10/13 12:00:13;;;;;;;4.30;2.50;;;9.30;83.40;;;;;;4965866;28;20420;-61
2021/10/13 12:02:40;;;;;;;3.33;1.47;;;9.30;84.30;;;;;;4963926;28;20714;-60
2021/10/13 12:05:07;;;;;;;2.60;2.03;;;9.30;83.20;;;;;;4958872;28;20516;-61
2021/10/13 12:07:42;;;;;;;2.37;1.30;;;9.20;83.30;;;;;;4960702;28;20433;-60
2021/10/13 12:10:08;;;;;;;1.83;1.47;;;9.10;83.00;;;;;;4962222;28;20440;-59
2021/10/13 12:12:34;;;;;;;3.50;2.20;;;9.10;86.60;;;;;;4951427;28;20438;-61
2021/10/13 12:15:00;;;;;;;1.97;1.87;;;9.10;89.10;;;;;;4950520;28;20453;-62
2021/10/13 12:17:35;;;;;;;4.07;1.97;;;9.10;90.40;;;;;;4954000;28;20246;-63
2021/10/13 12:20:02;;;;;;;2.93;1.57;;;9.20;92.70;;;;;;4964625;28;20229;-62
2021/10/13 12:22:44;;;;;;;2.37;1.53;;;9.20;89.30;;;;;;4955048;28;20462;-63
2021/10/13 12:25:43;;;;;;;1.70;1.60;;;9.20;81.50;;;;;;4953316;28;20838;-61
2021/10/13 12:28:15;;;;;;;1.57;1.30;;;9.30;79.00;;;;;;4943520;28;20492;-64
2021/10/13 12:30:41;;;;;;;5.00;1.53;;;9.60;72.80;;;;;;4960393;28;20430;-60
2021/10/13 12:33:12;;;;;;;2.47;1.83;;;10.00;69.30;;;;;;4970284;28;20576;-63
2021/10/13 12:35:38;;;;;;;1.67;1.23;;;10.60;61.80;;;;;;4957455;28;20590;-63
2021/10/13 12:38:16;;;;;;;1.70;1.60;;;11.50;57.70;;;;;;4958015;28;20464;-65
2021/10/13 12:40:59;;;;;;;1.73;1.33;;;12.40;58.20;;;;;;4972537;28;20440;-61
2021/10/13 12:43:26;;;;;;;2.97;1.50;;;13.50;56.00;;;;;;4954528;28;20453;-63
2021/10/13 12:45:52;;;;;;;4.40;1.40;;;14.40;53.60;;;;;;4958868;28;20464;-63
2021/10/13 12:48:21;;;;;;;2.23;1.20;;;14.60;49.30;;;;;;4953042;28;20436;-60
2021/10/13 12:51:06;;;;;;;3.10;1.50;;;14.10;48.00;;;;;;4955018;28;20438;-60
2021/10/13 12:53:33;;;;;;;6.13;1.60;;;13.40;48.30;;;;;;4955553;28;20459;-61
2021/10/13 12:55:59;;;;;;;3.87;1.57;;;13.00;49.50;;;;;;4959000;28;20523;-62
2021/10/13 12:58:28;;;;;;;1.90;1.30;;;12.60;50.40;;;;;;4950458;28;20441;-61
2021/10/13 13:00:54;;;;;;;2.70;1.53;;;12.50;52.30;;;;;;4960610;28;20465;-61
2021/10/13 13:03:22;;;;;;;4.13;2.03;;;12.30;52.00;;;;;;4956736;28;20974;-61
2021/10/13 13:05:48;;;;;;;2.30;1.83;;;12.00;51.70;;;;;;4950725;28;20548;-61